Time;durP1;ratioP1;P1;durP2;ratioP2;P2;SDS_P1;SDS_P2;PMS_P1;PMS_P2;Temp;Humidity;BMP_temperature;BMP_pressure;BME280_temperature;BME280_humidity;BME280_pressure;Samples;Min_cycle;Max_cycle;Signal;HPM_P1;HPM_P2
2023/03/12 00:01:59;;;;;;;5.90;2.80;;;1.00;99.90;;;;;;5048131;28;20052;-39
2023/03/12 00:04:25;;;;;;;5.35;3.00;;;1.00;99.90;;;;;;5048710;28;20024;-39
2023/03/12 00:06:51;;;;;;;9.13;3.33;;;1.10;99.90;;;;;;5047857;28;20021;-39
2023/03/12 00:09:16;;;;;;;6.63;2.83;;;1.10;99.90;;;;;;5049133;28;20025;-39
2023/03/12 00:11:42;;;;;;;5.82;2.65;;;1.10;99.90;;;;;;5047814;28;20020;-39
2023/03/12 00:14:07;;;;;;;8.60;3.08;;;1.00;99.90;;;;;;5048659;28;20064;-38
2023/03/12 00:16:33;;;;;;;6.43;2.30;;;1.00;99.90;;;;;;5047800;28;20374;-38
2023/03/12 00:19:00;;;;;;;5.88;2.53;;;1.00;99.90;;;;;;5048860;28;20033;-38
2023/03/12 00:21:26;;;;;;;6.53;2.78;;;1.00;99.90;;;;;;5048663;28;20021;-38
2023/03/12 00:23:52;;;;;;;7.50;3.22;;;1.00;99.90;;;;;;5048601;28;20119;-38
2023/03/12 00:26:18;;;;;;;4.63;2.78;;;1.00;99.90;;;;;;5047939;28;20473;-38
2023/03/12 00:28:46;;;;;;;9.52;3.28;;;1.00;99.90;;;;;;5048692;28;20075;-38
2023/03/12 00:31:23;;;;;;;6.93;2.80;;;1.00;99.90;;;;;;5048463;28;20046;-38
2023/03/12 00:33:49;;;;;;;10.77;3.03;;;1.00;99.90;;;;;;5047352;28;20040;-39
2023/03/12 00:36:16;;;;;;;15.15;3.53;;;1.00;99.90;;;;;;5047165;28;20029;-39
2023/03/12 00:38:42;;;;;;;5.43;2.47;;;1.00;99.90;;;;;;5048625;28;20076;-39
2023/03/12 00:41:07;;;;;;;8.48;3.15;;;0.90;99.90;;;;;;5048737;28;20052;-39
2023/03/12 00:43:33;;;;;;;14.18;3.15;;;0.90;99.90;;;;;;5047384;28;20025;-39
2023/03/12 00:45:58;;;;;;;4.63;2.65;;;0.90;99.90;;;;;;5047843;28;20028;-39
2023/03/12 00:48:24;;;;;;;7.80;2.55;;;0.90;99.90;;;;;;5048686;28;20032;-39
2023/03/12 00:50:49;;;;;;;5.20;2.83;;;0.90;99.90;;;;;;5048455;28;20070;-39
2023/03/12 00:53:15;;;;;;;7.47;2.63;;;0.90;99.90;;;;;;5047923;28;20114;-39
2023/03/12 00:55:41;;;;;;;7.25;2.83;;;0.90;99.90;;;;;;5047971;28;20542;-39
2023/03/12 00:58:06;;;;;;;8.30;2.78;;;1.00;99.90;;;;;;5055229;28;20063;-39
2023/03/12 01:00:32;;;;;;;6.25;2.85;;;0.90;99.90;;;;;;5068551;28;20028;-39
2023/03/12 01:02:57;;;;;;;4.22;2.30;;;0.90;99.90;;;;;;5068473;28;20024;-39
2023/03/12 01:05:23;;;;;;;11.13;2.72;;;1.00;99.90;;;;;;5067939;28;20521;-39
2023/03/12 01:07:48;;;;;;;3.88;2.42;;;0.90;99.90;;;;;;5053432;28;20029;-39
2023/03/12 01:10:16;;;;;;;7.88;3.10;;;0.90;99.90;;;;;;5048242;28;20126;-39
2023/03/12 01:12:42;;;;;;;6.85;3.05;;;0.90;99.90;;;;;;5048292;28;20057;-39
2023/03/12 01:15:09;;;;;;;5.63;2.08;;;0.90;99.90;;;;;;5047830;28;20075;-39
2023/03/12 01:17:35;;;;;;;10.18;2.50;;;0.90;99.90;;;;;;5052867;28;20027;-39
2023/03/12 01:20:00;;;;;;;5.55;2.42;;;0.90;99.90;;;;;;5068035;28;20398;-39
2023/03/12 01:22:26;;;;;;;6.13;2.85;;;0.90;99.90;;;;;;5068045;28;20016;-39
2023/03/12 01:24:51;;;;;;;7.75;2.35;;;0.90;99.90;;;;;;5067371;28;20127;-39
2023/03/12 01:27:17;;;;;;;5.60;2.40;;;0.90;99.90;;;;;;5068269;28;20338;-39
2023/03/12 01:29:42;;;;;;;4.95;2.78;;;0.80;99.90;;;;;;5067893;28;20083;-39
2023/03/12 01:32:08;;;;;;;5.32;2.45;;;0.90;99.90;;;;;;5068082;28;20017;-39
2023/03/12 01:34:34;;;;;;;4.95;2.50;;;0.80;99.90;;;;;;5068292;28;20550;-39
2023/03/12 01:37:00;;;;;;;6.15;2.92;;;0.90;99.90;;;;;;5067879;28;20025;-39
2023/03/12 01:39:26;;;;;;;5.63;3.15;;;0.80;99.90;;;;;;5068103;28;20032;-39
2023/03/12 01:41:51;;;;;;;11.07;2.53;;;0.80;99.90;;;;;;5068167;28;20556;-39
2023/03/12 01:44:17;;;;;;;11.43;2.33;;;0.80;99.90;;;;;;5067898;28;20291;-40
2023/03/12 01:46:44;;;;;;;8.13;2.20;;;0.80;99.90;;;;;;5067297;28;20622;-39
2023/03/12 01:49:18;;;;;;;7.85;3.22;;;0.80;99.90;;;;;;5048285;28;20100;-39
2023/03/12 01:51:53;;;;;;;9.27;2.88;;;0.80;99.90;;;;;;5047951;28;20112;-41
2023/03/12 01:54:20;;;;;;;6.30;2.33;;;0.70;99.90;;;;;;5047976;28;20025;-39
2023/03/12 01:56:46;;;;;;;6.97;2.35;;;0.70;99.90;;;;;;5048096;28;20040;-39
2023/03/12 01:59:17;;;;;;;4.03;2.88;;;0.60;99.90;;;;;;5047805;28;20100;-39
2023/03/12 02:01:44;;;;;;;8.18;2.67;;;0.60;99.90;;;;;;5047636;28;20036;-39
2023/03/12 02:04:11;;;;;;;6.40;2.50;;;0.60;99.90;;;;;;5047155;28;20033;-39
2023/03/12 02:07:10;;;;;;;5.68;2.47;;;0.70;99.90;;;;;;5050594;28;20490;-39
2023/03/12 02:09:39;;;;;;;8.57;3.00;;;0.70;99.90;;;;;;5037897;28;20037;-39
2023/03/12 02:12:05;;;;;;;9.80;2.57;;;0.70;99.90;;;;;;5051048;28;20100;-39
2023/03/12 02:14:31;;;;;;;6.45;2.72;;;0.70;99.90;;;;;;5051078;28;20074;-39
2023/03/12 02:16:57;;;;;;;3.50;2.28;;;0.70;99.90;;;;;;5050535;28;20029;-39
2023/03/12 02:19:53;;;;;;;5.38;2.95;;;0.70;99.90;;;;;;5050152;28;20033;-39
2023/03/12 02:22:19;;;;;;;8.98;3.03;;;0.70;99.90;;;;;;5048132;28;20106;-39
2023/03/12 02:25:20;;;;;;;7.03;2.47;;;0.70;99.90;;;;;;5050479;28;20087;-39
2023/03/12 02:27:46;;;;;;;8.32;2.30;;;0.70;99.90;;;;;;5051048;28;20269;-39
2023/03/12 02:30:14;;;;;;;8.05;2.15;;;0.60;99.90;;;;;;5050695;28;20125;-39
2023/03/12 02:32:41;;;;;;;9.57;2.60;;;0.60;99.90;;;;;;5051289;28;20433;-39
2023/03/12 02:35:07;;;;;;;4.53;2.35;;;0.60;99.90;;;;;;5050391;28;20047;-38
2023/03/12 02:37:33;;;;;;;4.65;2.90;;;0.60;99.90;;;;;;5050756;28;20561;-39
2023/03/12 02:40:12;;;;;;;6.63;2.53;;;0.50;99.90;;;;;;5049529;28;20021;-39
2023/03/12 02:42:37;;;;;;;5.63;2.50;;;0.50;99.90;;;;;;5050957;28;20061;-39
2023/03/12 02:45:03;;;;;;;6.43;2.55;;;0.50;99.90;;;;;;5049781;28;20057;-39
2023/03/12 02:47:29;;;;;;;7.65;2.50;;;0.40;99.90;;;;;;5050708;28;20135;-39
2023/03/12 02:49:54;;;;;;;7.13;2.20;;;0.40;99.90;;;;;;5050520;28;20031;-39
2023/03/12 02:52:20;;;;;;;5.28;2.10;;;0.40;99.90;;;;;;5050353;28;20187;-39
2023/03/12 02:54:45;;;;;;;4.85;2.10;;;0.40;99.90;;;;;;5050199;28;20025;-38
2023/03/12 02:57:11;;;;;;;4.35;2.30;;;0.30;99.90;;;;;;5048978;28;20056;-39
2023/03/12 02:59:36;;;;;;;5.43;2.15;;;0.30;99.90;;;;;;5050511;28;20089;-39
2023/03/12 03:02:03;;;;;;;5.18;2.05;;;0.20;99.90;;;;;;5050321;28;20017;-39
2023/03/12 03:04:29;;;;;;;6.75;2.50;;;0.20;99.90;;;;;;5050115;28;20066;-39
2023/03/12 03:06:55;;;;;;;5.22;2.25;;;0.20;99.90;;;;;;5049897;28;20107;-39
2023/03/12 03:09:21;;;;;;;7.57;1.90;;;0.10;99.90;;;;;;5050464;28;20100;-39
2023/03/12 03:11:47;;;;;;;6.50;2.17;;;0.00;99.90;;;;;;5050380;28;20025;-39
2023/03/12 03:14:13;;;;;;;4.03;2.53;;;0.10;99.90;;;;;;5050501;28;20025;-40
2023/03/12 03:16:38;;;;;;;6.35;2.35;;;0.10;99.90;;;;;;5049680;28;20025;-40
2023/03/12 03:19:04;;;;;;;6.40;2.47;;;0.10;99.90;;;;;;5050319;28;20036;-40
2023/03/12 03:21:30;;;;;;;10.48;2.95;;;0.10;99.90;;;;;;5050129;28;20040;-40
2023/03/12 03:23:56;;;;;;;4.15;2.50;;;0.10;99.90;;;;;;5050005;28;20537;-39
2023/03/12 03:26:23;;;;;;;3.80;2.17;;;0.10;99.90;;;;;;5048453;28;20055;-40
2023/03/12 03:28:49;;;;;;;5.13;2.40;;;0.10;99.90;;;;;;5048378;28;20453;-40
2023/03/12 03:31:15;;;;;;;10.57;3.05;;;0.10;99.90;;;;;;5049460;28;20052;-40
2023/03/12 03:33:40;;;;;;;7.43;2.15;;;0.10;99.90;;;;;;5048355;28;20056;-40
2023/03/12 03:36:07;;;;;;;4.15;2.63;;;0.10;99.90;;;;;;5049496;28;20043;-39
2023/03/12 03:38:34;;;;;;;4.10;2.38;;;0.10;99.90;;;;;;5049509;28;20033;-41
2023/03/12 03:41:00;;;;;;;5.10;2.60;;;0.10;99.90;;;;;;5049779;28;20033;-40
2023/03/12 03:43:26;;;;;;;3.85;2.30;;;0.10;99.90;;;;;;5049471;28;20032;-40
2023/03/12 03:46:04;;;;;;;5.22;2.47;;;0.00;99.90;;;;;;5047536;28;20024;-40
2023/03/12 03:48:30;;;;;;;4.32;2.55;;;0.00;99.90;;;;;;5049496;28;20025;-40
2023/03/12 03:51:04;;;;;;;4.18;2.22;;;0.00;99.90;;;;;;5049304;28;20028;-40
2023/03/12 03:53:30;;;;;;;4.88;2.80;;;0.00;99.90;;;;;;5049461;28;20056;-40
2023/03/12 03:55:56;;;;;;;6.93;2.70;;;0.00;99.90;;;;;;5048948;28;20063;-40
2023/03/12 03:58:21;;;;;;;5.97;2.38;;;0.00;99.90;;;;;;5049176;28;20284;-40
2023/03/12 04:00:47;;;;;;;4.45;2.25;;;-0.10;99.90;;;;;;5049468;28;20371;-40
2023/03/12 04:03:13;;;;;;;5.95;2.17;;;-0.10;99.90;;;;;;5048580;28;20021;-39
2023/03/12 04:05:43;;;;;;;5.07;2.10;;;-0.10;99.90;;;;;;5047293;28;20112;-38
2023/03/12 04:08:10;;;;;;;4.85;2.25;;;-0.20;99.90;;;;;;5049456;28;20025;-39
2023/03/12 04:10:36;;;;;;;4.45;2.05;;;-0.30;99.90;;;;;;5048898;28;20025;-39
2023/03/12 04:13:02;;;;;;;6.00;2.45;;;-0.30;99.90;;;;;;5048626;28;20031;-39
2023/03/12 04:15:27;;;;;;;7.03;2.70;;;-0.40;99.90;;;;;;5048361;28;20041;-39
2023/03/12 04:17:53;;;;;;;6.60;2.88;;;-0.40;99.90;;;;;;5049596;28;20029;-39
2023/03/12 04:20:18;;;;;;;7.03;2.70;;;-0.50;99.90;;;;;;5047622;28;20027;-38
2023/03/12 04:22:44;;;;;;;5.35;2.65;;;-0.60;99.90;;;;;;5049266;28;20396;-39
2023/03/12 04:25:10;;;;;;;3.08;2.30;;;-0.60;99.90;;;;;;5048647;28;20033;-39
2023/03/12 04:27:35;;;;;;;4.97;2.85;;;-0.60;99.90;;;;;;5048399;28;20025;-39
2023/03/12 04:30:01;;;;;;;4.45;2.53;;;-0.60;99.90;;;;;;5048738;28;20009;-39
2023/03/12 04:32:26;;;;;;;6.85;3.03;;;-0.70;99.90;;;;;;5047993;28;20378;-39
2023/03/12 04:34:52;;;;;;;8.82;3.00;;;-0.70;99.90;;;;;;5048300;28;20037;-39
2023/03/12 04:37:17;;;;;;;7.50;2.53;;;-0.70;99.90;;;;;;5046645;28;20108;-39
2023/03/12 04:39:44;;;;;;;3.47;2.60;;;-0.70;99.90;;;;;;5048632;28;20512;-39
2023/03/12 04:42:10;;;;;;;9.63;3.15;;;-0.60;99.90;;;;;;5047431;28;20436;-40
2023/03/12 04:44:36;;;;;;;3.65;2.92;;;-0.60;99.90;;;;;;5048416;28;20040;-39
2023/03/12 04:47:03;;;;;;;4.93;2.45;;;-0.70;99.90;;;;;;5047527;28;20079;-39
2023/03/12 04:49:29;;;;;;;4.60;2.67;;;-0.70;99.90;;;;;;5048308;28;20021;-40
2023/03/12 04:51:54;;;;;;;6.38;2.90;;;-0.70;99.90;;;;;;5048141;28;20021;-40
2023/03/12 04:54:20;;;;;;;6.72;3.15;;;-0.80;99.90;;;;;;5048737;28;20033;-40
2023/03/12 04:56:46;;;;;;;6.43;3.53;;;-0.80;99.90;;;;;;5048153;28;20533;-40
2023/03/12 04:59:12;;;;;;;5.38;2.50;;;-0.90;99.90;;;;;;5047496;28;20102;-40
2023/03/12 05:01:37;;;;;;;6.18;2.80;;;-0.90;99.90;;;;;;5047950;28;20482;-40
2023/03/12 05:04:04;;;;;;;7.55;2.78;;;-1.00;99.90;;;;;;5048001;28;20068;-40
2023/03/12 05:06:30;;;;;;;4.28;3.03;;;-1.00;99.90;;;;;;5048251;28;20021;-41
2023/03/12 05:08:55;;;;;;;10.30;2.83;;;-1.00;99.90;;;;;;5048417;28;20021;-39
2023/03/12 05:11:21;;;;;;;9.43;3.70;;;-1.00;99.90;;;;;;5048473;28;20031;-40
2023/03/12 05:13:47;;;;;;;4.35;2.90;;;-1.10;99.90;;;;;;5048029;28;20025;-40
2023/03/12 05:16:14;;;;;;;5.55;2.92;;;-1.10;99.90;;;;;;5048172;28;20017;-42
2023/03/12 05:18:40;;;;;;;6.35;2.72;;;-1.10;99.90;;;;;;5048303;28;20050;-39
2023/03/12 05:21:10;;;;;;;9.15;3.35;;;-1.20;99.90;;;;;;5047993;28;20463;-40
2023/03/12 05:23:38;;;;;;;6.57;3.13;;;-1.20;99.90;;;;;;5047544;28;20040;-39
2023/03/12 05:26:04;;;;;;;8.45;3.88;;;-1.10;99.90;;;;;;5047487;28;20376;-39
2023/03/12 05:28:30;;;;;;;4.10;2.60;;;-1.20;99.90;;;;;;5047892;28;20021;-39
2023/03/12 05:31:00;;;;;;;5.93;3.60;;;-1.20;99.90;;;;;;5047798;28;20391;-39
2023/03/12 05:33:27;;;;;;;6.22;3.08;;;-1.10;99.90;;;;;;5047732;28;20120;-39
2023/03/12 05:35:53;;;;;;;5.72;2.85;;;-1.10;99.90;;;;;;5046327;28;20036;-39
2023/03/12 05:38:19;;;;;;;32.90;3.60;;;-1.10;99.90;;;;;;5048478;28;20147;-39
2023/03/12 05:40:56;;;;;;;6.50;3.20;;;-1.10;99.90;;;;;;5052203;28;20021;-39
2023/03/12 05:43:22;;;;;;;6.20;2.70;;;-1.10;99.90;;;;;;5052278;28;20082;-39
2023/03/12 05:45:48;;;;;;;7.85;3.00;;;-0.90;99.90;;;;;;5052087;28;20047;-39
2023/03/12 05:48:13;;;;;;;14.25;3.13;;;-1.00;99.90;;;;;;5051863;28;20036;-39
2023/03/12 05:50:39;;;;;;;9.27;4.85;;;-0.90;99.90;;;;;;5051798;28;20025;-39
2023/03/12 05:53:05;;;;;;;7.13;2.85;;;-0.80;99.90;;;;;;5051396;28;20040;-39
2023/03/12 05:55:34;;;;;;;5.63;3.05;;;-0.70;99.90;;;;;;5051552;28;20025;-39
2023/03/12 05:57:59;;;;;;;7.60;3.03;;;-0.70;99.90;;;;;;5050403;28;20025;-39
2023/03/12 06:00:25;;;;;;;6.07;2.65;;;-0.60;99.90;;;;;;5051830;28;20035;-39
2023/03/12 06:02:50;;;;;;;10.00;3.85;;;-0.60;99.90;;;;;;5050757;28;20067;-39
2023/03/12 06:05:16;;;;;;;7.57;3.40;;;-0.50;99.90;;;;;;5050913;28;20033;-39
2023/03/12 06:07:41;;;;;;;7.70;3.28;;;-0.50;99.90;;;;;;5051585;28;20032;-39
2023/03/12 06:10:08;;;;;;;8.88;3.13;;;-0.40;99.90;;;;;;5051416;28;20031;-39
2023/03/12 06:12:33;;;;;;;8.85;3.22;;;-0.30;99.90;;;;;;5051527;28;20284;-39
2023/03/12 06:14:59;;;;;;;10.50;3.25;;;-0.30;99.90;;;;;;5050191;28;20458;-39
2023/03/12 06:17:24;;;;;;;4.72;2.50;;;-0.30;99.90;;;;;;5050090;28;20024;-39
2023/03/12 06:19:51;;;;;;;5.72;2.75;;;-0.20;99.90;;;;;;5051577;28;20025;-39
2023/03/12 06:22:17;;;;;;;9.43;3.00;;;-0.20;99.90;;;;;;5050455;28;20418;-39
2023/03/12 06:24:46;;;;;;;6.75;3.22;;;-0.10;99.90;;;;;;5051188;28;20031;-39
2023/03/12 06:27:12;;;;;;;5.47;3.00;;;0.00;99.90;;;;;;5050376;28;20045;-39
2023/03/12 06:29:37;;;;;;;5.22;3.22;;;0.10;99.90;;;;;;5054647;28;20013;-39
2023/03/12 06:32:03;;;;;;;7.80;3.60;;;0.10;99.90;;;;;;5063603;28;20029;-39
2023/03/12 06:34:28;;;;;;;7.20;3.30;;;0.20;99.90;;;;;;5054986;28;20025;-39
2023/03/12 06:36:54;;;;;;;10.60;3.55;;;0.20;99.90;;;;;;5067227;28;20137;-39
2023/03/12 06:39:20;;;;;;;6.95;3.58;;;0.30;99.90;;;;;;5056325;28;20012;-39
2023/03/12 06:41:45;;;;;;;7.97;3.28;;;0.50;99.90;;;;;;5060438;28;20029;-39
2023/03/12 06:44:11;;;;;;;13.00;5.90;;;0.50;99.90;;;;;;5064332;28;20524;-39
2023/03/12 06:46:37;;;;;;;8.88;2.88;;;0.50;99.90;;;;;;5053417;28;20041;-39
2023/03/12 06:49:02;;;;;;;6.57;2.80;;;0.60;99.90;;;;;;5064849;28;20021;-39
2023/03/12 06:51:28;;;;;;;5.47;2.60;;;0.60;99.90;;;;;;5056423;28;20016;-39
2023/03/12 06:53:53;;;;;;;9.30;3.88;;;0.60;99.90;;;;;;5058851;28;20048;-39
2023/03/12 06:56:19;;;;;;;8.70;2.90;;;0.70;99.90;;;;;;5063169;28;20486;-39
2023/03/12 06:58:44;;;;;;;7.90;3.72;;;0.80;99.90;;;;;;5066777;28;20159;-39
2023/03/12 07:01:10;;;;;;;11.32;2.70;;;0.80;99.90;;;;;;5055600;28;20033;-39
2023/03/12 07:03:36;;;;;;;10.95;2.60;;;0.90;99.90;;;;;;5060964;28;20037;-39
2023/03/12 07:06:02;;;;;;;7.13;3.08;;;0.90;99.90;;;;;;5062492;28;20022;-39
2023/03/12 07:08:31;;;;;;;11.20;2.80;;;1.00;99.90;;;;;;5053729;28;20101;-39
2023/03/12 07:10:59;;;;;;;4.90;2.80;;;1.00;99.90;;;;;;5048557;28;20025;-39
2023/03/12 07:13:24;;;;;;;9.20;3.08;;;1.10;99.90;;;;;;5049251;28;20040;-39
2023/03/12 07:15:50;;;;;;;8.38;3.45;;;1.20;99.90;;;;;;5049944;28;20094;-39
2023/03/12 07:18:15;;;;;;;10.20;3.45;;;1.20;99.90;;;;;;5065353;28;20438;-39
2023/03/12 07:20:42;;;;;;;7.45;3.25;;;1.30;99.90;;;;;;5055607;28;20024;-39
2023/03/12 07:23:08;;;;;;;4.45;2.80;;;1.30;99.90;;;;;;5058493;28;20213;-40
2023/03/12 07:25:38;;;;;;;11.88;3.53;;;1.40;99.90;;;;;;5048827;28;20021;-39
2023/03/12 07:28:05;;;;;;;9.27;3.53;;;1.50;99.90;;;;;;5065922;28;20040;-39
2023/03/12 07:30:32;;;;;;;9.18;4.00;;;1.50;99.90;;;;;;5053743;28;20485;-38
2023/03/12 07:32:59;;;;;;;5.70;2.75;;;1.60;99.90;;;;;;5058923;28;20023;-39
2023/03/12 07:35:25;;;;;;;5.75;3.17;;;1.60;99.90;;;;;;5047890;28;20025;-40
2023/03/12 07:37:51;;;;;;;7.25;3.00;;;1.60;99.90;;;;;;5056521;28;20024;-40
2023/03/12 07:40:17;;;;;;;6.85;3.00;;;1.70;99.90;;;;;;5051904;28;20028;-40
2023/03/12 07:42:42;;;;;;;5.18;2.67;;;1.80;99.90;;;;;;5048080;28;20110;-40
2023/03/12 07:45:08;;;;;;;8.52;2.88;;;1.80;99.90;;;;;;5049135;28;20425;-39
2023/03/12 07:47:33;;;;;;;6.30;2.67;;;2.00;99.90;;;;;;5048515;28;20023;-40
2023/03/12 07:50:00;;;;;;;8.60;3.60;;;2.10;99.90;;;;;;5048889;28;20470;-40
2023/03/12 07:52:26;;;;;;;10.32;3.40;;;2.30;99.90;;;;;;5049338;28;20083;-40
2023/03/12 07:54:53;;;;;;;6.80;2.70;;;2.40;99.90;;;;;;5049246;28;20092;-40
2023/03/12 07:57:18;;;;;;;5.20;2.55;;;2.50;99.90;;;;;;5048285;28;20029;-40
2023/03/12 07:59:45;;;;;;;5.63;2.38;;;2.60;99.90;;;;;;5048783;28;20321;-40
2023/03/12 08:02:10;;;;;;;5.15;2.88;;;2.80;99.90;;;;;;5047573;28;20021;-40
2023/03/12 08:04:36;;;;;;;10.65;2.60;;;2.90;99.90;;;;;;5048225;28;20036;-40
2023/03/12 08:07:01;;;;;;;7.00;2.65;;;2.90;99.90;;;;;;5047140;28;20056;-40
2023/03/12 08:09:28;;;;;;;5.32;1.90;;;2.80;99.90;;;;;;5047890;28;20497;-40
2023/03/12 08:11:53;;;;;;;7.78;2.83;;;2.80;99.90;;;;;;5048339;28;20052;-40
2023/03/12 08:14:19;;;;;;;4.70;2.60;;;2.90;99.90;;;;;;5048805;28;20056;-40
2023/03/12 08:16:44;;;;;;;3.55;2.60;;;3.00;99.90;;;;;;5047779;28;20453;-40
2023/03/12 08:19:10;;;;;;;6.00;3.20;;;3.00;99.90;;;;;;5048683;28;20406;-40
2023/03/12 08:21:36;;;;;;;9.95;2.60;;;3.10;99.90;;;;;;5048287;28;20052;-41
2023/03/12 08:24:01;;;;;;;6.38;2.28;;;3.30;99.90;;;;;;5048462;28;20025;-38
2023/03/12 08:26:27;;;;;;;5.75;2.83;;;3.50;99.90;;;;;;5047632;28;20273;-40
2023/03/12 08:28:52;;;;;;;11.35;3.28;;;3.50;99.90;;;;;;5046907;28;20359;-41
2023/03/12 08:31:18;;;;;;;5.97;2.65;;;3.80;99.90;;;;;;5046807;28;20025;-41
2023/03/12 08:33:45;;;;;;;8.02;2.25;;;3.70;99.90;;;;;;5048472;28;20118;-40
2023/03/12 08:36:11;;;;;;;7.40;2.38;;;3.80;99.90;;;;;;5048490;28;20104;-40
2023/03/12 08:38:37;;;;;;;4.53;2.45;;;4.00;99.90;;;;;;5047962;28;20620;-39
2023/03/12 08:41:02;;;;;;;4.20;1.80;;;4.00;99.90;;;;;;5048787;28;20096;-40
2023/03/12 08:43:28;;;;;;;13.23;2.22;;;4.30;99.90;;;;;;5047150;28;20144;-40
2023/03/12 08:45:56;;;;;;;4.63;2.60;;;4.30;99.80;;;;;;5046149;28;20471;-38
2023/03/12 08:48:21;;;;;;;4.82;2.38;;;4.70;99.70;;;;;;5045403;28;20493;-38
2023/03/12 08:50:47;;;;;;;6.47;2.65;;;5.10;97.70;;;;;;5046389;28;20059;-38
2023/03/12 08:53:12;;;;;;;4.43;2.70;;;5.40;98.40;;;;;;5048817;28;20031;-39
2023/03/12 08:55:38;;;;;;;5.45;2.25;;;5.90;97.10;;;;;;5046173;28;20478;-38
2023/03/12 08:58:03;;;;;;;7.68;2.85;;;6.90;95.40;;;;;;5046689;28;20039;-39
2023/03/12 09:00:29;;;;;;;7.05;2.20;;;7.20;92.40;;;;;;5047351;28;20024;-39
2023/03/12 09:02:57;;;;;;;6.10;2.53;;;6.90;91.80;;;;;;5046047;28;20518;-38
2023/03/12 09:05:23;;;;;;;7.78;2.83;;;7.10;91.20;;;;;;5045208;28;20029;-39
2023/03/12 09:07:49;;;;;;;6.18;2.38;;;7.00;92.70;;;;;;5047402;28;20394;-38
2023/03/12 09:10:15;;;;;;;3.95;2.00;;;6.80;91.30;;;;;;5047249;28;20096;-39
2023/03/12 09:12:40;;;;;;;5.55;1.85;;;6.60;91.10;;;;;;5043420;28;20383;-38
2023/03/12 09:15:07;;;;;;;6.95;1.80;;;6.70;91.40;;;;;;5048200;28;20104;-38
2023/03/12 09:17:32;;;;;;;5.57;1.67;;;6.90;90.60;;;;;;5051004;28;20509;-39
2023/03/12 09:19:58;;;;;;;5.20;1.92;;;6.90;91.00;;;;;;5050666;28;20024;-38
2023/03/12 09:22:24;;;;;;;7.93;2.22;;;6.90;89.10;;;;;;5050828;28;20406;-38
2023/03/12 09:24:50;;;;;;;7.47;1.67;;;6.60;89.70;;;;;;5050443;28;20021;-39
2023/03/12 09:27:15;;;;;;;5.15;1.33;;;6.30;89.20;;;;;;5050899;28;20463;-39
2023/03/12 09:29:41;;;;;;;2.63;1.48;;;6.00;90.20;;;;;;5050592;28;20017;-38
2023/03/12 09:32:06;;;;;;;6.93;1.80;;;6.30;90.80;;;;;;5052231;28;20044;-38
2023/03/12 09:34:32;;;;;;;5.38;1.75;;;6.30;90.10;;;;;;5051922;28;20036;-38
2023/03/12 09:36:57;;;;;;;5.63;2.15;;;6.90;89.10;;;;;;5051188;28;20060;-38
2023/03/12 09:39:23;;;;;;;4.80;1.88;;;7.20;87.20;;;;;;5052092;28;20026;-38
2023/03/12 09:41:49;;;;;;;3.85;1.75;;;7.40;86.20;;;;;;5050138;28;20031;-39
2023/03/12 09:44:23;;;;;;;3.78;2.00;;;8.10;82.40;;;;;;5052031;28;20020;-38
2023/03/12 09:47:02;;;;;;;8.23;2.20;;;8.30;84.70;;;;;;5051988;28;20025;-39
2023/03/12 09:49:43;;;;;;;6.03;1.83;;;9.20;80.70;;;;;;5050108;28;20117;-38
2023/03/12 09:52:26;;;;;;;7.68;2.38;;;8.80;81.30;;;;;;5051804;28;20017;-38
2023/03/12 09:54:58;;;;;;;4.03;2.20;;;8.90;76.00;;;;;;5051555;28;20028;-38
2023/03/12 09:57:25;;;;;;;4.25;1.90;;;9.40;78.10;;;;;;5050854;28;20052;-38
2023/03/12 09:59:51;;;;;;;2.72;1.77;;;10.10;77.30;;;;;;5050574;28;20528;-38
2023/03/12 10:02:41;;;;;;;5.68;1.88;;;10.40;73.80;;;;;;5051342;28;20043;-38
2023/03/12 10:05:25;;;;;;;4.55;2.10;;;10.60;69.50;;;;;;5051232;28;20017;-38
2023/03/12 10:08:02;;;;;;;6.32;2.42;;;10.20;69.80;;;;;;5051605;28;20025;-38
2023/03/12 10:10:44;;;;;;;2.30;1.77;;;10.80;71.50;;;;;;5051231;28;20328;-38
2023/03/12 10:13:22;;;;;;;4.80;2.63;;;11.10;68.90;;;;;;5049879;28;20383;-38
2023/03/12 10:15:58;;;;;;;4.72;2.42;;;9.20;69.80;;;;;;5050681;28;20025;-38
2023/03/12 10:18:48;;;;;;;2.55;1.70;;;8.80;72.10;;;;;;5049556;28;20013;-38
2023/03/12 10:21:32;;;;;;;6.53;1.87;;;8.50;71.90;;;;;;5051538;28;20021;-38
2023/03/12 10:24:15;;;;;;;4.80;1.98;;;8.40;72.00;;;;;;5049388;28;20036;-39
2023/03/12 10:26:54;;;;;;;6.18;2.00;;;8.20;72.10;;;;;;5050500;28;20465;-39
2023/03/12 10:29:27;;;;;;;4.70;2.13;;;8.40;73.10;;;;;;5051414;28;20535;-38
2023/03/12 10:32:04;;;;;;;4.32;2.05;;;8.40;70.70;;;;;;5049171;28;20393;-38
2023/03/12 10:34:53;;;;;;;5.78;2.15;;;8.50;72.40;;;;;;5050486;28;20470;-39
2023/03/12 10:37:22;;;;;;;7.38;2.75;;;8.40;72.30;;;;;;5050392;28;20405;-38
2023/03/12 10:39:48;;;;;;;7.95;2.30;;;8.10;74.10;;;;;;5049802;28;20127;-39
2023/03/12 10:42:22;;;;;;;5.80;2.55;;;8.30;74.00;;;;;;5051082;28;20029;-38
2023/03/12 10:44:55;;;;;;;6.25;3.00;;;8.20;74.10;;;;;;5050477;28;20102;-38
2023/03/12 10:47:42;;;;;;;6.95;2.47;;;8.10;74.60;;;;;;5050176;28;20025;-38
2023/03/12 10:50:19;;;;;;;6.22;2.35;;;8.00;77.00;;;;;;5044672;28;20175;-38
2023/03/12 10:52:46;;;;;;;9.57;2.60;;;7.60;76.60;;;;;;5049442;28;20052;-38
2023/03/12 10:55:25;;;;;;;6.90;2.38;;;7.40;77.50;;;;;;5048875;28;20029;-38
2023/03/12 10:57:51;;;;;;;7.10;2.28;;;7.10;78.00;;;;;;5047778;28;20111;-38
2023/03/12 11:00:19;;;;;;;4.97;2.38;;;7.20;78.80;;;;;;5049406;28;20078;-38
2023/03/12 11:02:46;;;;;;;4.65;2.17;;;6.80;80.70;;;;;;5046828;28;20479;-38
2023/03/12 11:05:27;;;;;;;3.05;2.17;;;6.80;81.00;;;;;;5048739;28;20376;-38
2023/03/12 11:07:53;;;;;;;7.85;2.65;;;6.20;82.80;;;;;;5044939;28;20036;-38
2023/03/12 11:10:19;;;;;;;4.15;2.10;;;6.10;84.80;;;;;;5048514;28;20052;-38
2023/03/12 11:13:29;;;;;;;4.18;2.35;;;6.10;85.30;;;;;;5049381;28;20056;-38
2023/03/12 11:15:58;;;;;;;3.85;2.03;;;6.10;86.30;;;;;;5049076;28;20682;-38
2023/03/12 11:18:27;;;;;;;8.55;2.58;;;6.30;85.20;;;;;;5046388;28;20029;-38
2023/03/12 11:21:14;;;;;;;6.60;2.70;;;6.10;86.60;;;;;;5049764;28;20435;-38
2023/03/12 11:23:47;;;;;;;6.28;2.25;;;6.30;86.20;;;;;;5047939;28;20017;-38
2023/03/12 11:26:21;;;;;;;5.47;2.08;;;6.00;85.90;;;;;;5048404;28;20017;-38
2023/03/12 11:28:51;;;;;;;5.68;2.05;;;5.90;87.40;;;;;;5046243;28;20048;-38
2023/03/12 11:31:23;;;;;;;5.40;2.38;;;6.30;88.00;;;;;;5047390;28;20063;-38
2023/03/12 11:33:51;;;;;;;4.88;2.60;;;6.10;87.20;;;;;;5046778;28;20029;-38
2023/03/12 11:36:27;;;;;;;9.93;2.38;;;5.80;88.30;;;;;;5048532;28;20021;-38
2023/03/12 11:39:21;;;;;;;5.57;1.70;;;5.70;89.00;;;;;;5046937;28;20033;-38
2023/03/12 11:42:15;;;;;;;9.95;2.78;;;5.70;88.20;;;;;;5045233;28;20171;-38
2023/03/12 11:44:47;;;;;;;4.45;2.03;;;5.70;89.40;;;;;;5048653;28;20032;-38
2023/03/12 11:47:31;;;;;;;8.15;2.30;;;5.60;90.30;;;;;;5048331;28;20032;-38
2023/03/12 11:50:02;;;;;;;4.78;2.33;;;5.50;90.10;;;;;;5049080;28;20021;-38
2023/03/12 11:52:53;;;;;;;8.15;2.45;;;5.60;91.30;;;;;;5047213;28;20021;-38
2023/03/12 11:55:24;;;;;;;;;;;5.70;91.50;;;;;;5046878;28;20021;-38
2023/03/12 11:58:07;;;;;;;4.93;2.67;;;5.70;90.90;;;;;;5048778;28;19962;-38
2023/03/12 12:00:56;;;;;;;2.63;1.60;;;5.60;91.50;;;;;;5045605;28;20506;-38
2023/03/12 12:03:45;;;;;;;4.50;1.70;;;5.90;91.50;;;;;;5043230;28;20450;-45
2023/03/12 12:06:39;;;;;;;8.32;1.98;;;5.80;91.80;;;;;;5038442;28;20108;-46
2023/03/12 12:09:15;;;;;;;4.30;2.15;;;5.90;91.30;;;;;;5046124;28;20024;-46
2023/03/12 12:12:03;;;;;;;5.57;1.92;;;5.80;92.20;;;;;;5048662;28;20040;-46
2023/03/12 12:14:48;;;;;;;6.28;1.92;;;5.70;91.80;;;;;;5048817;28;20163;-46
2023/03/12 12:17:30;;;;;;;4.63;1.95;;;5.70;93.50;;;;;;5048984;28;20021;-45
2023/03/12 12:20:20;;;;;;;5.95;2.20;;;5.20;93.60;;;;;;5049720;28;20115;-45
2023/03/12 12:23:05;;;;;;;4.35;1.75;;;4.90;94.50;;;;;;5049296;28;20489;-47
2023/03/12 12:26:04;;;;;;;4.88;2.25;;;5.00;95.00;;;;;;5047786;28;20021;-47
2023/03/12 12:28:48;;;;;;;5.75;1.67;;;5.00;95.70;;;;;;5049139;28;20021;-46
2023/03/12 12:31:32;;;;;;;5.40;1.88;;;5.00;96.60;;;;;;5048989;28;20243;-46
2023/03/12 12:34:17;;;;;;;5.07;1.45;;;5.00;96.70;;;;;;5049059;28;20021;-45
2023/03/12 12:36:50;;;;;;;5.60;1.60;;;5.10;97.20;;;;;;5048788;28;20028;-45
2023/03/12 12:39:29;;;;;;;4.28;1.70;;;5.20;97.90;;;;;;5048321;28;20131;-46
2023/03/12 12:42:01;;;;;;;6.97;3.03;;;5.40;97.50;;;;;;5049210;28;20035;-46
2023/03/12 12:44:32;;;;;;;10.93;1.92;;;5.50;97.60;;;;;;5047335;28;20064;-45
2023/03/12 12:47:04;;;;;;;9.23;2.63;;;5.60;97.70;;;;;;5048658;28;20033;-45
2023/03/12 12:49:45;;;;;;;7.28;2.60;;;5.50;98.20;;;;;;5048189;28;20096;-45
2023/03/12 12:52:14;;;;;;;4.07;1.88;;;5.70;98.50;;;;;;5048800;28;20048;-46
2023/03/12 12:55:03;;;;;;;4.32;1.70;;;5.50;99.90;;;;;;5047513;28;20035;-45
2023/03/12 12:57:43;;;;;;;8.88;2.38;;;5.10;99.90;;;;;;5035825;28;20105;-46
2023/03/12 13:00:34;;;;;;;6.78;2.10;;;5.00;99.90;;;;;;5040584;28;20036;-45
2023/03/12 13:03:00;;;;;;;5.60;2.00;;;4.80;99.90;;;;;;5046179;28;20029;-45
2023/03/12 13:05:34;;;;;;;4.53;2.13;;;4.60;99.90;;;;;;5037981;28;20022;-45
2023/03/12 13:08:00;;;;;;;4.93;2.20;;;4.60;99.90;;;;;;5028308;28;20049;-46